createdAt,value
2016-06-14T00:00:01.787Z,16.29
2016-06-14T00:01:01.744Z,16.36
2016-06-14T00:02:01.732Z,16.33
2016-06-14T00:03:01.718Z,16.29
2016-06-14T00:04:01.707Z,16.29
2016-06-14T00:05:01.677Z,16.33
2016-06-14T00:06:01.666Z,16.24
2016-06-14T00:07:01.637Z,16.23
2016-06-14T00:08:01.609Z,16.13
2016-06-14T00:09:01.597Z,16.28
2016-06-14T00:10:01.584Z,16.15
2016-06-14T00:11:01.556Z,16.17
2016-06-14T00:12:01.528Z,16.26
2016-06-14T00:13:01.515Z,16.2
2016-06-14T00:14:01.502Z,16.2
2016-06-14T00:15:01.334Z,16.21
2016-06-14T00:16:01.461Z,16.21
2016-06-14T00:17:01.434Z,16.2
2016-06-14T00:18:01.421Z,16.23
2016-06-14T00:19:01.393Z,16.21
2016-06-14T00:20:01.381Z,16.26
2016-06-14T00:21:01.352Z,16.23
2016-06-14T00:22:01.340Z,16.16
2016-06-14T00:23:01.311Z,16.2
2016-06-14T00:24:01.299Z,16.21
2016-06-14T00:25:01.286Z,16.13
2016-06-14T00:26:01.258Z,16.21
2016-06-14T00:27:01.245Z,16.21
2016-06-14T00:28:01.217Z,16.15
2016-06-14T00:29:01.205Z,16.1
2016-06-14T00:30:01.411Z,16.15
2016-06-14T00:31:01.210Z,16.1
2016-06-14T00:32:01.136Z,16.12
2016-06-14T00:33:01.124Z,16.16
2016-06-14T00:34:01.110Z,16.08
2016-06-14T00:35:01.083Z,16.08
2016-06-14T00:36:01.070Z,16.08
2016-06-14T00:37:01.042Z,16.02
2016-06-14T00:38:01.014Z,16.09
2016-06-14T00:39:01.001Z,16.04
2016-06-14T00:40:00.989Z,16.08
2016-06-14T00:41:00.960Z,16.05
2016-06-14T00:42:00.948Z,16.05
2016-06-14T00:43:00.936Z,16.05
2016-06-14T00:44:00.908Z,16.05
2016-06-14T00:45:00.878Z,16.09
2016-06-14T00:46:00.867Z,16.05
2016-06-14T00:47:00.838Z,16.13
2016-06-14T00:48:00.826Z,16.09
2016-06-14T00:49:00.798Z,16.05
2016-06-14T00:50:00.785Z,16.1
2016-06-14T00:51:00.757Z,16.13
2016-06-14T00:52:00.744Z,16.08
2016-06-14T00:53:00.716Z,16.09
2016-06-14T00:54:00.704Z,16.05
2016-06-14T00:55:00.675Z,16.08
2016-06-14T00:56:00.663Z,16.12
2016-06-14T00:57:00.651Z,16.05
2016-06-14T00:58:00.622Z,16
2016-06-14T00:59:00.610Z,16.1
2016-06-14T01:00:00.597Z,16.08
2016-06-14T01:01:00.569Z,16.09
2016-06-14T01:02:00.385Z,16.05
2016-06-14T01:03:00.528Z,16.04
2016-06-14T01:04:00.500Z,16.05
2016-06-14T01:05:00.488Z,16.09
2016-06-14T01:06:00.459Z,16.09
2016-06-14T01:07:00.447Z,16.05
2016-06-14T01:08:00.418Z,16.02
2016-06-14T01:09:00.406Z,16.02
2016-06-14T01:10:00.394Z,16.05
2016-06-14T01:11:00.366Z,16.05
2016-06-14T01:12:00.352Z,16.05
2016-06-14T01:13:00.325Z,16.04
2016-06-14T01:14:00.312Z,16.1
2016-06-14T01:15:00.284Z,16.04
2016-06-14T01:16:00.255Z,16.08
2016-06-14T01:17:00.243Z,16.05
2016-06-14T01:18:00.247Z,16.04
2016-06-14T01:19:00.218Z,16.05
2016-06-14T01:20:00.190Z,16.08
2016-06-14T01:21:00.177Z,16.05
2016-06-14T01:22:00.134Z,16.1
2016-06-14T01:23:00.120Z,16.09
2016-06-14T01:24:00.108Z,16.08
2016-06-14T01:25:00.096Z,16.1
2016-06-14T01:26:00.068Z,16.09
2016-06-14T01:27:00.040Z,16.04
2016-06-14T01:28:00.027Z,16.08
2016-06-14T01:28:59.999Z,16.08
2016-06-14T01:29:59.830Z,16.05
2016-06-14T01:30:59.974Z,16.1
2016-06-14T01:31:59.945Z,16.09
2016-06-14T01:32:59.933Z,16.09
2016-06-14T01:33:59.904Z,16.09
2016-06-14T01:34:59.892Z,16.05
2016-06-14T01:35:59.865Z,16.09
2016-06-14T01:36:59.851Z,16.08
2016-06-14T01:37:59.823Z,16.08
2016-06-14T01:38:59.858Z,16.1
2016-06-14T01:39:59.783Z,16.05
2016-06-14T01:40:59.769Z,16.05
2016-06-14T01:41:59.742Z,16.08
2016-06-14T01:42:59.729Z,16.09
2016-06-14T01:43:59.717Z,16.04
2016-06-14T01:44:59.688Z,16.05
2016-06-14T01:45:59.676Z,16.05
2016-06-14T01:46:59.492Z,16.12
2016-06-14T01:47:59.635Z,16.08
2016-06-14T01:48:59.607Z,16.05
2016-06-14T01:49:59.594Z,16.1
2016-06-14T01:50:59.567Z,16.09
2016-06-14T01:51:59.538Z,16.02
2016-06-14T01:52:59.526Z,16.02
2016-06-14T01:53:59.512Z,16.04
2016-06-14T01:54:59.501Z,15.95
2016-06-14T01:55:59.472Z,16.02
2016-06-14T01:56:59.301Z,16.04
2016-06-14T01:57:59.429Z,16.09
2016-06-14T01:58:59.400Z,16.05
2016-06-14T02:00:00.250Z,16.04
2016-06-14T02:00:59.375Z,16.01
2016-06-14T02:01:59.347Z,16.1
2016-06-14T02:02:59.319Z,15.95
2016-06-14T02:03:59.306Z,16.09
2016-06-14T02:04:59.294Z,16.1
2016-06-14T02:05:59.265Z,16.1
2016-06-14T02:06:59.238Z,16.05
2016-06-14T02:07:59.225Z,16.09
2016-06-14T02:08:59.213Z,16.1
2016-06-14T02:09:59.184Z,16.05
2016-06-14T02:10:59.172Z,16.02
2016-06-14T02:11:59.143Z,16.1
2016-06-14T02:12:59.131Z,16.09
2016-06-14T02:13:59.103Z,16.02
2016-06-14T02:14:59.091Z,16.1
2016-06-14T02:15:59.062Z,16
2016-06-14T02:16:59.049Z,16.02
2016-06-14T02:17:59.021Z,16.04
2016-06-14T02:18:59.009Z,15.98
2016-06-14T02:19:58.996Z,16
2016-06-14T02:20:58.967Z,16.09
2016-06-14T02:21:58.940Z,15.95
2016-06-14T02:22:58.926Z,16.04
2016-06-14T02:23:58.915Z,16.01
2016-06-14T02:24:58.887Z,16.01
2016-06-14T02:25:58.874Z,15.91
2016-06-14T02:26:58.846Z,15.97
2016-06-14T02:27:58.833Z,15.86
2016-06-14T02:28:58.805Z,15.92
2016-06-14T02:29:58.792Z,15.83
2016-06-14T02:30:58.764Z,15.79
2016-06-14T02:31:58.751Z,15.83
2016-06-14T02:32:58.567Z,15.83
2016-06-14T02:33:58.710Z,15.7
2016-06-14T02:34:58.699Z,15.75
2016-06-14T02:35:58.671Z,15.76
2016-06-14T02:36:58.641Z,15.76
2016-06-14T02:37:58.630Z,15.77
2016-06-14T02:38:58.617Z,15.73
2016-06-14T02:39:58.589Z,15.73
2016-06-14T02:40:58.576Z,15.67
2016-06-14T02:41:58.548Z,15.75
2016-06-14T02:42:58.536Z,15.7
2016-06-14T02:43:58.507Z,15.77
2016-06-14T02:44:58.495Z,15.62
2016-06-14T02:45:58.467Z,15.73
2016-06-14T02:46:58.297Z,15.67
2016-06-14T02:47:58.426Z,15.72
2016-06-14T02:48:58.414Z,15.59
2016-06-14T02:49:58.385Z,15.64
2016-06-14T02:50:58.373Z,15.73
2016-06-14T02:51:58.345Z,15.72
2016-06-14T02:52:58.332Z,15.73
2016-06-14T02:53:58.319Z,15.68
2016-06-14T02:54:58.291Z,15.65
2016-06-14T02:55:58.263Z,15.64
2016-06-14T02:56:58.314Z,15.62
2016-06-14T02:57:58.300Z,15.7
2016-06-14T02:58:58.272Z,15.67
2016-06-14T02:59:58.245Z,15.67
2016-06-14T03:00:58.950Z,15.65
2016-06-14T03:01:58.141Z,15.55
2016-06-14T03:02:58.129Z,15.58
2016-06-14T03:03:58.116Z,15.59
2016-06-14T03:04:58.150Z,15.52
2016-06-14T03:05:58.059Z,15.51
2016-06-14T03:06:58.047Z,15.59
2016-06-14T03:07:58.020Z,15.58
2016-06-14T03:08:58.006Z,15.61
2016-06-14T03:09:57.978Z,15.57
2016-06-14T03:10:57.965Z,15.54
2016-06-14T03:11:57.937Z,15.61
2016-06-14T03:12:57.925Z,15.58
2016-06-14T03:13:57.897Z,15.64
2016-06-14T03:14:57.883Z,15.51
2016-06-14T03:15:57.855Z,15.54
2016-06-14T03:16:57.843Z,15.49
2016-06-14T03:17:57.815Z,15.49
2016-06-14T03:18:57.803Z,15.44
2016-06-14T03:19:57.774Z,15.46
2016-06-14T03:20:57.762Z,15.51
2016-06-14T03:21:57.733Z,15.51
2016-06-14T03:22:57.721Z,15.46
2016-06-14T03:23:57.693Z,15.49
2016-06-14T03:24:57.681Z,15.47
2016-06-14T03:25:57.652Z,15.49
2016-06-14T03:26:57.639Z,15.44
2016-06-14T03:27:57.612Z,15.44
2016-06-14T03:28:57.599Z,15.51
2016-06-14T03:29:58.382Z,15.49
2016-06-14T03:30:57.558Z,15.47
2016-06-14T03:31:57.545Z,15.42
2016-06-14T03:32:57.517Z,15.36
2016-06-14T03:33:57.489Z,15.43
2016-06-14T03:34:57.477Z,15.31
2016-06-14T03:35:57.464Z,15.35
2016-06-14T03:36:57.436Z,15.31
2016-06-14T03:37:57.407Z,15.29
2016-06-14T03:38:57.396Z,15.27
2016-06-14T03:39:57.368Z,15.28
2016-06-14T03:40:57.355Z,15.29
2016-06-14T03:41:57.326Z,15.24
2016-06-14T03:42:57.297Z,15.24
2016-06-14T03:43:57.286Z,15.28
2016-06-14T03:44:57.461Z,15.25
2016-06-14T03:45:57.714Z,15.25
2016-06-14T03:46:57.217Z,15.25
2016-06-14T03:47:57.204Z,15.24
2016-06-14T03:48:57.191Z,15.18
2016-06-14T03:49:57.476Z,15.21
2016-06-14T03:50:57.151Z,15.25
2016-06-14T03:51:57.122Z,15.21
2016-06-14T03:52:57.110Z,15.21
2016-06-14T03:53:57.081Z,15.25
2016-06-14T03:54:57.070Z,15.21
2016-06-14T03:55:57.042Z,15.24
2016-06-14T03:56:57.028Z,15.27
2016-06-14T03:57:57.001Z,15.18
2016-06-14T03:58:56.988Z,15.22
2016-06-14T03:59:57.272Z,15.25
2016-06-14T04:00:56.791Z,15.28
2016-06-14T04:01:56.919Z,15.25
2016-06-14T04:02:56.906Z,15.25
2016-06-14T04:03:56.878Z,15.25
2016-06-14T04:04:56.851Z,15.22
2016-06-14T04:05:56.853Z,15.28
2016-06-14T04:06:56.809Z,15.28
2016-06-14T04:07:56.796Z,15.27
2016-06-14T04:08:56.769Z,15.28
2016-06-14T04:09:56.756Z,15.37
2016-06-14T04:10:56.727Z,15.29
2016-06-14T04:11:56.716Z,15.37
2016-06-14T04:12:56.687Z,15.29
2016-06-14T04:13:56.675Z,15.31
2016-06-14T04:14:56.850Z,15.47
2016-06-14T04:15:57.056Z,15.36
2016-06-14T04:16:56.606Z,15.43
2016-06-14T04:17:56.593Z,15.36
2016-06-14T04:18:56.565Z,15.35
2016-06-14T04:19:56.569Z,15.43
2016-06-14T04:20:56.525Z,15.42
2016-06-14T04:21:56.511Z,15.47
2016-06-14T04:22:56.484Z,15.46
2016-06-14T04:23:56.470Z,15.43
2016-06-14T04:24:56.443Z,15.46
2016-06-14T04:25:56.430Z,15.44
2016-06-14T04:26:56.418Z,15.4
2016-06-14T04:27:56.390Z,15.52
2016-06-14T04:28:56.362Z,15.42
2016-06-14T04:29:56.349Z,15.52
2016-06-14T04:30:56.367Z,15.51
2016-06-14T04:31:56.309Z,15.49
2016-06-14T04:32:56.281Z,15.47
2016-06-14T04:33:56.267Z,15.42
2016-06-14T04:34:56.287Z,15.57
2016-06-14T04:35:56.227Z,15.46
2016-06-14T04:36:56.213Z,15.46
2016-06-14T04:37:56.185Z,15.54
2016-06-14T04:38:56.174Z,15.47
2016-06-14T04:39:56.145Z,15.47
2016-06-14T04:40:56.133Z,15.51
2016-06-14T04:41:56.104Z,15.47
2016-06-14T04:42:56.092Z,15.51
2016-06-14T04:43:56.064Z,15.64
2016-06-14T04:44:55.895Z,15.59
2016-06-14T04:45:56.179Z,15.55
2016-06-14T04:46:56.010Z,15.65
2016-06-14T04:47:55.983Z,15.67
2016-06-14T04:48:56.001Z,15.61
2016-06-14T04:49:55.957Z,15.64
2016-06-14T04:50:55.929Z,15.62
2016-06-14T04:51:55.901Z,15.61
2016-06-14T04:52:55.888Z,15.54
2016-06-14T04:53:55.860Z,15.52
2016-06-14T04:54:55.848Z,15.44
2016-06-14T04:55:55.819Z,15.51
2016-06-14T04:56:55.807Z,15.49
2016-06-14T04:57:55.811Z,15.51
2016-06-14T04:58:55.953Z,15.51
2016-06-14T04:59:55.909Z,15.47
2016-06-14T05:00:56.178Z,15.46
2016-06-14T05:01:55.713Z,15.47
2016-06-14T05:02:55.685Z,15.49
2016-06-14T05:03:55.672Z,15.59
2016-06-14T05:04:55.722Z,15.54
2016-06-14T05:05:55.632Z,15.61
2016-06-14T05:06:55.603Z,15.58
2016-06-14T05:07:55.591Z,15.57
2016-06-14T05:08:55.562Z,15.55
2016-06-14T05:09:55.706Z,15.61
2016-06-14T05:10:55.522Z,15.58
2016-06-14T05:11:55.510Z,15.7
2016-06-14T05:12:55.497Z,15.62
2016-06-14T05:13:55.469Z,15.62
2016-06-14T05:14:55.441Z,15.67
2016-06-14T05:15:55.678Z,15.62
2016-06-14T05:16:55.447Z,15.64
2016-06-14T05:17:55.387Z,15.75
2016-06-14T05:18:55.547Z,15.62
2016-06-14T05:19:55.346Z,15.65
2016-06-14T05:20:55.334Z,15.76
2016-06-14T05:21:55.587Z,15.75
2016-06-14T05:22:55.293Z,15.76
2016-06-14T05:23:55.108Z,15.73
2016-06-14T05:24:55.269Z,15.75
2016-06-14T05:25:55.225Z,15.65
2016-06-14T05:26:55.212Z,15.76
2016-06-14T05:27:55.183Z,15.77
2016-06-14T05:28:55.296Z,15.72
2016-06-14T05:29:55.190Z,15.75
2016-06-14T05:30:55.177Z,15.64
2016-06-14T05:31:55.117Z,15.72
2016-06-14T05:32:55.277Z,15.75
2016-06-14T05:33:56.483Z,15.76
2016-06-14T05:34:56.439Z,15.73
2016-06-14T05:35:56.224Z,15.75
2016-06-14T05:36:55.243Z,15.79
2016-06-14T05:37:55.058Z,15.73
2016-06-14T05:38:54.968Z,15.68
2016-06-14T05:39:54.954Z,15.73
2016-06-14T05:40:54.926Z,15.76
2016-06-14T05:41:54.914Z,15.76
2016-06-14T05:42:54.980Z,15.62
2016-06-14T05:43:54.874Z,15.7
2016-06-14T05:44:55.002Z,15.73
2016-06-14T05:45:54.676Z,15.65
2016-06-14T05:46:54.664Z,15.68
2016-06-14T05:47:54.792Z,15.64
2016-06-14T05:48:54.779Z,15.64
2016-06-14T05:49:54.752Z,15.67
2016-06-14T05:50:54.738Z,15.62
2016-06-14T05:51:54.711Z,15.68
2016-06-14T05:52:54.683Z,15.64
2016-06-14T05:53:54.670Z,15.62
2016-06-14T05:54:54.657Z,15.61
2016-06-14T05:55:54.629Z,15.62
2016-06-14T05:56:54.617Z,15.79
2016-06-14T05:57:54.588Z,15.7
2016-06-14T05:58:54.576Z,15.7
2016-06-14T05:59:54.548Z,15.73
2016-06-14T06:00:54.535Z,15.82
2016-06-14T06:01:54.522Z,15.75
2016-06-14T06:02:54.494Z,15.76
2016-06-14T06:03:54.467Z,15.77
2016-06-14T06:04:54.470Z,15.79
2016-06-14T06:05:54.441Z,15.75
2016-06-14T06:06:54.413Z,15.91
2016-06-14T06:07:54.401Z,15.75
2016-06-14T06:08:54.372Z,15.84
2016-06-14T06:09:54.454Z,15.79
2016-06-14T06:10:54.347Z,15.84
2016-06-14T06:11:54.319Z,15.72
2016-06-14T06:12:54.291Z,15.75
2016-06-14T06:13:54.278Z,15.7
2016-06-14T06:14:54.265Z,15.77
2016-06-14T06:15:55.268Z,15.59
2016-06-14T06:16:54.226Z,15.65
2016-06-14T06:17:54.196Z,15.67
2016-06-14T06:18:54.185Z,15.62
2016-06-14T06:19:54.155Z,15.67
2016-06-14T06:20:54.143Z,15.65
2016-06-14T06:21:54.178Z,15.58
2016-06-14T06:22:54.447Z,15.61
2016-06-14T06:23:54.262Z,15.59
2016-06-14T06:24:54.109Z,15.58
2016-06-14T06:25:54.206Z,15.57
2016-06-14T06:26:54.115Z,15.58
2016-06-14T06:27:54.227Z,15.57
2016-06-14T06:28:54.184Z,15.65
2016-06-14T06:29:53.952Z,15.57
2016-06-14T06:30:54.565Z,15.67
2016-06-14T06:31:53.990Z,15.67
2016-06-14T06:32:54.212Z,15.57
2016-06-14T06:33:53.918Z,15.54
2016-06-14T06:34:53.859Z,15.58
2016-06-14T06:35:53.846Z,15.67
2016-06-14T06:36:53.880Z,15.57
2016-06-14T06:37:53.852Z,15.54
2016-06-14T06:38:53.777Z,15.58
2016-06-14T06:39:53.905Z,15.61
2016-06-14T06:40:53.752Z,15.59
2016-06-14T06:41:53.739Z,15.57
2016-06-14T06:42:53.946Z,15.57
2016-06-14T06:43:53.933Z,15.49
2016-06-14T06:44:53.686Z,15.57
2016-06-14T06:45:53.527Z,15.57
2016-06-14T06:46:53.679Z,15.59
2016-06-14T06:47:54.034Z,15.58
2016-06-14T06:48:53.717Z,15.52
2016-06-14T06:49:53.775Z,15.57
2016-06-14T06:50:53.739Z,15.52
2016-06-14T06:51:53.739Z,15.57
2016-06-14T06:52:53.788Z,15.57
2016-06-14T06:53:53.727Z,15.57
2016-06-14T06:54:53.729Z,15.61
2016-06-14T06:55:53.741Z,15.44
2016-06-14T06:56:53.780Z,15.61
2016-06-14T06:57:53.693Z,15.52
2016-06-14T06:58:53.546Z,15.57
2016-06-14T06:59:53.726Z,15.59
2016-06-14T07:00:54.044Z,15.61
2016-06-14T07:01:53.471Z,15.55
2016-06-14T07:02:53.757Z,15.59
2016-06-14T07:03:53.589Z,15.62
2016-06-14T07:04:54.439Z,15.54
2016-06-14T07:05:53.552Z,15.59
2016-06-14T07:06:53.540Z,15.62
2016-06-14T07:07:53.513Z,15.64
2016-06-14T07:08:53.485Z,15.7
2016-06-14T07:09:53.487Z,15.72
2016-06-14T07:10:53.491Z,15.67
2016-06-14T07:11:53.449Z,15.73
2016-06-14T07:12:53.686Z,15.79
2016-06-14T07:13:53.439Z,15.76
2016-06-14T07:14:53.459Z,15.79
2016-06-14T07:15:53.352Z,15.79
2016-06-14T07:16:53.340Z,15.79
2016-06-14T07:17:53.311Z,15.84
2016-06-14T07:18:53.299Z,15.86
2016-06-14T07:19:53.381Z,15.88
2016-06-14T07:20:53.305Z,15.84
2016-06-14T07:21:53.496Z,15.9
2016-06-14T07:22:53.624Z,15.92
2016-06-14T07:23:53.908Z,15.95
2016-06-14T07:24:53.411Z,15.97
2016-06-14T07:25:53.180Z,15.98
2016-06-14T07:26:53.183Z,16.09
2016-06-14T07:27:53.311Z,16.05
2016-06-14T07:28:53.627Z,16.08
2016-06-14T07:29:53.442Z,16.31
2016-06-14T07:30:53.523Z,16.33
2016-06-14T07:31:53.042Z,16.43
2016-06-14T07:32:53.186Z,16.61
2016-06-14T07:33:53.018Z,16.64
2016-06-14T07:34:53.145Z,16.71
2016-06-14T07:35:53.258Z,16.78
2016-06-14T07:36:52.964Z,16.91
2016-06-14T07:37:52.966Z,16.93
2016-06-14T07:38:52.922Z,17.06
2016-06-14T07:39:52.911Z,17.24
2016-06-14T07:40:53.570Z,17.34
2016-06-14T07:41:53.385Z,17.34
2016-06-14T07:42:53.154Z,17.44
2016-06-14T07:43:52.985Z,17.57
2016-06-14T07:44:52.832Z,17.67
2016-06-14T07:45:53.414Z,17.68
2016-06-14T07:46:52.791Z,17.76
2016-06-14T07:47:52.778Z,17.76
2016-06-14T07:48:52.782Z,17.8
2016-06-14T07:49:52.879Z,17.78
2016-06-14T07:50:53.037Z,17.92
2016-06-14T07:51:52.823Z,17.89
2016-06-14T07:52:52.701Z,17.9
2016-06-14T07:53:52.922Z,17.94
2016-06-14T07:54:53.738Z,17.97
2016-06-14T07:55:53.663Z,18.18
2016-06-14T07:56:53.634Z,18.18
2016-06-14T07:57:53.435Z,18.22
2016-06-14T07:58:53.672Z,18.2
2016-06-14T07:59:53.128Z,18.18
2016-06-14T08:00:52.679Z,18.08
2016-06-14T08:01:52.696Z,18.15
2016-06-14T08:02:53.185Z,18.05
2016-06-14T08:03:52.578Z,18.1
2016-06-14T08:04:52.628Z,18.08
2016-06-14T08:05:52.491Z,18.15
2016-06-14T08:06:52.477Z,18.08
2016-06-14T08:07:52.497Z,18.05
2016-06-14T08:08:52.484Z,18.11
2016-06-14T08:09:52.565Z,18
2016-06-14T08:10:52.537Z,17.94
2016-06-14T08:11:52.416Z,17.95
2016-06-14T08:12:52.621Z,17.98
2016-06-14T08:13:52.390Z,17.89
2016-06-14T08:14:52.486Z,17.79
2016-06-14T08:15:52.475Z,17.79
2016-06-14T08:16:52.399Z,17.72
2016-06-14T08:17:52.777Z,17.74
2016-06-14T08:18:52.937Z,17.68
2016-06-14T08:19:52.268Z,17.68
2016-06-14T08:20:52.099Z,17.63
2016-06-14T08:21:52.758Z,17.52
2016-06-14T08:22:52.246Z,17.46
2016-06-14T08:23:52.296Z,17.46
2016-06-14T08:24:52.206Z,17.44
2016-06-14T08:25:52.161Z,17.45
2016-06-14T08:26:52.898Z,17.48
2016-06-14T08:27:52.151Z,17.42
2016-06-14T08:28:52.124Z,17.42
2016-06-14T08:29:52.096Z,17.44
2016-06-14T08:30:52.520Z,17.42
2016-06-14T08:31:52.477Z,17.36
2016-06-14T08:32:52.058Z,17.3
2016-06-14T08:33:52.138Z,17.27
2016-06-14T08:34:52.064Z,17.29
2016-06-14T08:35:52.004Z,17.26
2016-06-14T08:36:52.336Z,17.15
2016-06-14T08:37:52.260Z,17.19
2016-06-14T08:38:52.388Z,17.15
2016-06-14T08:39:51.923Z,17.2
2016-06-14T08:40:52.457Z,17.23
2016-06-14T08:41:51.820Z,17.16
2016-06-14T08:42:51.964Z,17.14
2016-06-14T08:43:52.028Z,17.16
2016-06-14T08:44:52.017Z,17.16
2016-06-14T08:45:52.206Z,17.14
2016-06-14T08:46:52.038Z,17.08
2016-06-14T08:47:51.807Z,17.02
2016-06-14T08:48:51.826Z,17.04
2016-06-14T08:49:51.813Z,17.05
2016-06-14T08:50:51.755Z,16.97
2016-06-14T08:51:51.850Z,17.04
2016-06-14T08:52:51.541Z,17.01
2016-06-14T08:53:51.794Z,16.97
2016-06-14T08:54:51.688Z,17.02
2016-06-14T08:55:51.925Z,17.01
2016-06-14T08:56:51.632Z,16.96
2016-06-14T08:57:51.916Z,16.99
2016-06-14T08:58:51.637Z,16.99
2016-06-14T08:59:51.578Z,17.08
2016-06-14T09:00:52.581Z,17.05
2016-06-14T09:01:52.459Z,17.09
2016-06-14T09:02:52.306Z,17.2
2016-06-14T09:03:51.762Z,17.27
2016-06-14T09:04:51.515Z,17.29
2016-06-14T09:05:51.471Z,17.3
2016-06-14T09:06:51.521Z,17.38
2016-06-14T09:07:52.557Z,17.44
2016-06-14T09:08:51.700Z,17.45
2016-06-14T09:09:51.421Z,17.45
2016-06-14T09:10:51.236Z,17.48
2016-06-14T09:11:51.568Z,17.41
2016-06-14T09:12:51.353Z,17.51
2016-06-14T09:13:51.934Z,17.57
2016-06-14T09:14:51.312Z,17.67
2016-06-14T09:15:51.299Z,17.74
2016-06-14T09:16:51.568Z,17.82
2016-06-14T09:17:51.258Z,17.92
2016-06-14T09:18:51.777Z,17.95
2016-06-14T09:19:51.233Z,18.11
2016-06-14T09:20:51.206Z,18.2
2016-06-14T09:21:51.192Z,18.38
2016-06-14T09:22:51.181Z,18.45
2016-06-14T09:23:51.184Z,18.55
2016-06-14T09:24:51.171Z,18.62
2016-06-14T09:25:51.299Z,18.7
2016-06-14T09:26:51.536Z,18.84
2016-06-14T09:27:51.118Z,19.08
2016-06-14T09:28:51.105Z,19.3
2016-06-14T09:29:51.170Z,19.52
2016-06-14T09:30:51.189Z,19.66
2016-06-14T09:31:51.676Z,19.82
2016-06-14T09:32:51.164Z,19.86
2016-06-14T09:33:51.027Z,19.99
2016-06-14T09:34:51.326Z,19.94
2016-06-14T09:35:51.063Z,19.95
2016-06-14T09:36:51.005Z,20.07
2016-06-14T09:37:51.320Z,20.14
2016-06-14T09:38:50.964Z,20.29
2016-06-14T09:39:51.139Z,20.4
2016-06-14T09:40:50.938Z,20.55
2016-06-14T09:41:50.926Z,20.67
2016-06-14T09:42:50.929Z,20.7
2016-06-14T09:43:50.963Z,20.8
2016-06-14T09:44:50.905Z,20.69
2016-06-14T09:45:51.219Z,20.87
2016-06-14T09:46:51.020Z,20.81
2016-06-14T09:47:50.866Z,20.75
2016-06-14T09:48:50.947Z,20.75
2016-06-14T09:49:50.842Z,20.7
2016-06-14T09:50:51.000Z,20.75
2016-06-14T09:51:51.504Z,20.72
2016-06-14T09:52:51.147Z,20.62
2016-06-14T09:53:51.057Z,20.52
2016-06-14T09:54:50.872Z,20.51
2016-06-14T09:55:51.750Z,20.47
2016-06-14T09:56:51.269Z,20.36
2016-06-14T09:57:51.038Z,20.28
2016-06-14T09:58:50.884Z,20.21
2016-06-14T09:59:50.747Z,20.24
2016-06-14T10:00:50.844Z,20.19
2016-06-14T10:01:51.207Z,20.14
2016-06-14T10:02:50.710Z,20.18
2016-06-14T10:03:50.712Z,20.18
2016-06-14T10:04:50.669Z,20.04
2016-06-14T10:05:50.625Z,20.02
2016-06-14T10:06:50.738Z,20.03
2016-06-14T10:07:50.647Z,20.09
2016-06-14T10:08:51.212Z,20.03
2016-06-14T10:09:50.653Z,20.11
2016-06-14T10:10:50.578Z,20.06
2016-06-14T10:11:50.659Z,20.09
2016-06-14T10:12:50.943Z,20.09
2016-06-14T10:13:50.946Z,20.07
2016-06-14T10:14:50.496Z,20.16
2016-06-14T10:15:50.483Z,20.24
2016-06-14T10:16:50.471Z,20.31
2016-06-14T10:17:50.522Z,20.43
2016-06-14T10:18:50.493Z,20.41
2016-06-14T10:19:50.433Z,20.41
2016-06-14T10:20:50.452Z,20.5
2016-06-14T10:21:50.409Z,20.4
2016-06-14T10:22:51.208Z,20.41
2016-06-14T10:23:50.930Z,20.43
2016-06-14T10:24:50.371Z,20.48
2016-06-14T10:25:50.467Z,20.52
2016-06-14T10:26:50.736Z,20.51
2016-06-14T10:27:50.428Z,20.6
2016-06-14T10:28:50.430Z,20.55
2016-06-14T10:29:50.308Z,20.5
2016-06-14T10:30:50.279Z,20.56
2016-06-14T10:31:50.282Z,20.65
2016-06-14T10:32:50.380Z,20.69
2016-06-14T10:33:50.352Z,20.56
2016-06-14T10:34:50.323Z,20.65
2016-06-14T10:35:50.311Z,20.59
2016-06-14T10:36:50.517Z,20.6
2016-06-14T10:37:50.551Z,20.58
2016-06-14T10:38:50.367Z,20.59
2016-06-14T10:39:50.558Z,20.65
2016-06-14T10:40:50.154Z,20.62
2016-06-14T10:41:50.329Z,20.67
2016-06-14T10:42:50.035Z,20.58
2016-06-14T10:43:50.117Z,20.74
2016-06-14T10:44:50.089Z,20.84
2016-06-14T10:45:50.185Z,21.03
2016-06-14T10:46:50.720Z,21.35
2016-06-14T10:47:50.066Z,21.42
2016-06-14T10:48:50.147Z,21.69
2016-06-14T10:49:50.448Z,21.64
2016-06-14T10:50:50.451Z,21.76
2016-06-14T10:51:50.376Z,21.91
2016-06-14T10:52:50.004Z,22.02
2016-06-14T10:53:50.117Z,21.92
2016-06-14T10:54:50.228Z,21.93
2016-06-14T10:55:49.966Z,22.06
2016-06-14T10:56:50.001Z,22.08
2016-06-14T10:57:50.487Z,22.13
2016-06-14T10:58:49.943Z,22.17
2016-06-14T10:59:49.931Z,22.11
2016-06-14T11:00:49.966Z,22.07
2016-06-14T11:01:49.969Z,22.13
2016-06-14T11:02:50.050Z,22.11
2016-06-14T11:03:49.881Z,22.1
2016-06-14T11:04:49.884Z,22.26
2016-06-14T11:05:49.903Z,22.28
2016-06-14T11:06:49.859Z,22.38
2016-06-14T11:07:49.846Z,22.6
2016-06-14T11:08:49.834Z,22.8
2016-06-14T11:09:49.837Z,23.18
2016-06-14T11:10:49.809Z,23.27
2016-06-14T11:11:49.812Z,23.5
2016-06-14T11:12:49.799Z,23.78
2016-06-14T11:13:49.786Z,24.02
2016-06-14T11:14:49.790Z,24.29
2016-06-14T11:15:49.778Z,24.5
2016-06-14T11:16:49.780Z,24.73
2016-06-14T11:17:49.768Z,24.88
2016-06-14T11:18:49.755Z,25.1
2016-06-14T11:19:49.758Z,25.46
2016-06-14T11:20:49.747Z,25.51
2016-06-14T11:21:49.749Z,25.69
2016-06-14T11:22:49.737Z,25.75
2016-06-14T11:23:49.740Z,26.07
2016-06-14T11:24:49.742Z,26.21
2016-06-14T11:25:49.731Z,26.45
2016-06-14T11:26:49.734Z,26.77
2016-06-14T11:27:49.736Z,26.85
2016-06-14T11:28:49.724Z,27.1
2016-06-14T11:29:49.727Z,27.2
2016-06-14T11:30:49.730Z,27.22
2016-06-14T11:31:49.733Z,27.42
2016-06-14T11:32:49.720Z,27.45
2016-06-14T11:33:49.723Z,27.47
2016-06-14T11:34:49.726Z,27.45
2016-06-14T11:35:49.714Z,27.65
2016-06-14T11:36:49.718Z,27.83
2016-06-14T11:37:49.705Z,27.92
2016-06-14T11:38:49.708Z,28.14
2016-06-14T11:39:49.711Z,28.32
2016-06-14T11:40:49.713Z,28.32
2016-06-14T11:41:49.701Z,28.27
2016-06-14T11:42:49.704Z,28.35
2016-06-14T11:43:49.707Z,28.42
2016-06-14T11:44:49.695Z,28.01
2016-06-14T11:45:49.698Z,27.86
2016-06-14T11:46:49.701Z,27.83
2016-06-14T11:47:49.844Z,27.77
2016-06-14T11:48:50.582Z,27.71
2016-06-14T11:49:49.539Z,27.64
2016-06-14T11:50:49.683Z,27.67
2016-06-14T11:51:49.686Z,27.65
2016-06-14T11:52:49.689Z,27.54
2016-06-14T11:53:49.706Z,27.27
2016-06-14T11:54:49.679Z,27.14
2016-06-14T11:55:49.666Z,27.15
2016-06-14T11:56:49.668Z,27.15
2016-06-14T11:57:49.672Z,27.21
2016-06-14T11:58:49.660Z,27.22
2016-06-14T11:59:49.678Z,27.22
2016-06-14T12:00:49.666Z,27.21
2016-06-14T12:01:49.512Z,27.22
2016-06-14T12:02:49.657Z,27.29
2016-06-14T12:03:49.660Z,27.2
2016-06-14T12:04:49.647Z,27.17
2016-06-14T12:05:49.649Z,27.17
2016-06-14T12:06:49.637Z,27.22
2016-06-14T12:07:49.641Z,27.11
2016-06-14T12:08:49.644Z,27.1
2016-06-14T12:09:49.647Z,27.15
2016-06-14T12:10:49.634Z,27.08
2016-06-14T12:11:49.637Z,27.21
2016-06-14T12:12:49.625Z,27.35
2016-06-14T12:13:49.628Z,27.55
2016-06-14T12:14:49.616Z,27.71
2016-06-14T12:15:49.665Z,27.68
2016-06-14T12:16:49.622Z,27.71
2016-06-14T12:17:49.452Z,27.67
2016-06-14T12:18:49.612Z,27.65
2016-06-14T12:19:49.599Z,27.71
2016-06-14T12:20:49.603Z,27.65
2016-06-14T12:21:49.606Z,27.74
2016-06-14T12:22:49.593Z,27.75
2016-06-14T12:23:49.595Z,27.74
2016-06-14T12:24:49.583Z,27.63
2016-06-14T12:25:49.603Z,27.68
2016-06-14T12:26:49.589Z,27.71
2016-06-14T12:27:49.577Z,27.64
2016-06-14T12:28:49.580Z,27.65
2016-06-14T12:29:49.583Z,27.59
2016-06-14T12:30:49.586Z,27.51
2016-06-14T12:31:49.589Z,27.49
2016-06-14T12:32:49.577Z,27.44
2016-06-14T12:33:49.565Z,27.51
2016-06-14T12:34:49.568Z,27.45
2016-06-14T12:35:49.571Z,27.44
2016-06-14T12:36:49.558Z,27.35
2016-06-14T12:37:49.562Z,27.4
2016-06-14T12:38:49.548Z,27.48
2016-06-14T12:39:49.551Z,27.67
2016-06-14T12:40:49.555Z,27.74
2016-06-14T12:41:49.557Z,27.86
2016-06-14T12:42:49.545Z,27.83
2016-06-14T12:43:49.549Z,27.83
2016-06-14T12:44:49.552Z,27.65
2016-06-14T12:45:49.617Z,27.37
2016-06-14T12:46:49.386Z,27.36
2016-06-14T12:47:49.670Z,27.26
2016-06-14T12:48:49.533Z,27.26
2016-06-14T12:49:49.520Z,27.22
2016-06-14T12:50:49.524Z,27.14
2016-06-14T12:51:49.510Z,27.05
2016-06-14T12:52:49.576Z,27.08
2016-06-14T12:53:49.813Z,27.15
2016-06-14T12:54:49.505Z,27.18